createdAt,value
2017-11-26T00:02:22.368Z,100738.46
2017-11-26T00:04:51.002Z,100741.81
2017-11-26T00:07:19.577Z,100740.12
2017-11-26T00:09:48.274Z,100736.30
2017-11-26T00:12:16.997Z,100733.79
2017-11-26T00:14:45.656Z,100734.15
2017-11-26T00:17:14.284Z,100741.77
2017-11-26T00:19:42.999Z,100738.40
2017-11-26T00:22:11.507Z,100729.53
2017-11-26T00:24:40.213Z,100731.25
2017-11-26T00:27:08.896Z,100726.15
2017-11-26T00:29:37.400Z,100723.62
2017-11-26T00:32:06.046Z,100726.53
2017-11-26T00:34:34.771Z,100728.69
2017-11-26T00:37:03.404Z,100730.78
2017-11-26T00:39:32.121Z,100733.28
2017-11-26T00:42:00.768Z,100737.95
2017-11-26T00:44:29.426Z,100729.51
2017-11-26T00:46:58.118Z,100736.66
2017-11-26T00:49:26.745Z,100736.19
2017-11-26T00:51:55.398Z,100733.23
2017-11-26T00:54:24.116Z,100730.34
2017-11-26T00:56:52.846Z,100737.89
2017-11-26T00:59:21.495Z,100736.16
2017-11-26T01:01:50.179Z,100737.84
2017-11-26T01:04:18.846Z,100741.25
2017-11-26T01:06:47.480Z,100740.38
2017-11-26T01:09:16.164Z,100737.86
2017-11-26T01:11:44.838Z,100737.40
2017-11-26T01:14:13.555Z,100737.85
2017-11-26T01:16:42.352Z,100739.10
2017-11-26T01:19:11.013Z,100743.38
2017-11-26T01:21:39.755Z,100742.56
2017-11-26T01:24:08.434Z,100744.64
2017-11-26T01:26:37.098Z,100741.66
2017-11-26T01:29:05.773Z,100743.76
2017-11-26T01:31:34.455Z,100746.30
2017-11-26T01:34:03.284Z,100739.13
2017-11-26T01:36:31.753Z,100738.25
2017-11-26T01:39:00.386Z,100733.69
2017-11-26T01:41:29.157Z,100730.25
2017-11-26T01:43:57.831Z,100728.95
2017-11-26T01:46:26.481Z,100731.92
2017-11-26T01:48:58.390Z,100732.76
2017-11-26T01:51:27.075Z,100737.44
2017-11-26T01:53:55.740Z,100742.52
2017-11-26T01:56:24.735Z,100735.84
2017-11-26T01:58:53.384Z,100735.42
2017-11-26T02:01:22.061Z,100740.50
2017-11-26T02:03:59.920Z,100741.34
2017-11-26T02:06:28.268Z,100737.14
2017-11-26T02:08:56.800Z,100738.89
2017-11-26T02:11:25.521Z,100741.41
2017-11-26T02:13:54.190Z,100746.97
2017-11-26T02:16:22.838Z,100747.00
2017-11-26T02:18:51.539Z,100756.70
2017-11-26T02:21:20.236Z,100749.57
2017-11-26T02:23:48.605Z,100758.48
2017-11-26T02:26:17.007Z,100744.56
2017-11-26T02:28:45.394Z,100738.64
2017-11-26T02:31:25.153Z,100742.84
2017-11-26T02:34:04.878Z,100739.05
2017-11-26T02:36:33.273Z,100742.39
2017-11-26T02:39:01.637Z,100747.49
2017-11-26T02:41:30.311Z,100747.08
2017-11-26T02:43:58.738Z,100756.37
2017-11-26T02:46:27.449Z,100752.14
2017-11-26T02:48:55.880Z,100753.84
2017-11-26T02:51:24.556Z,100756.84
2017-11-26T02:53:52.966Z,100758.50
2017-11-26T02:56:21.729Z,100762.28
2017-11-26T02:58:50.467Z,100762.73
2017-11-26T03:01:19.228Z,100761.45
2017-11-26T03:03:47.969Z,100745.44
2017-11-26T03:06:16.672Z,100747.53
2017-11-26T03:08:45.348Z,100754.70
2017-11-26T03:11:14.040Z,100743.80
2017-11-26T03:13:42.686Z,100755.13
2017-11-26T03:16:11.380Z,100756.39
2017-11-26T03:18:40.044Z,100747.51
2017-11-26T03:21:08.744Z,100746.24
2017-11-26T03:23:37.287Z,100750.52
2017-11-26T03:26:05.992Z,100750.91
2017-11-26T03:28:34.547Z,100749.61
2017-11-26T03:31:03.120Z,100751.77
2017-11-26T03:33:33.008Z,100746.30
2017-11-26T03:36:01.708Z,100760.23
2017-11-26T03:38:30.221Z,100758.54
2017-11-26T03:40:58.976Z,100771.64
2017-11-26T03:43:27.656Z,100771.20
2017-11-26T03:45:56.324Z,100766.15
2017-11-26T03:48:25.003Z,100765.77
2017-11-26T03:50:53.667Z,100763.66
2017-11-26T03:53:24.664Z,100760.23
2017-11-26T03:55:53.066Z,100760.70
2017-11-26T03:58:21.761Z,100751.81
2017-11-26T04:00:50.411Z,100751.75
2017-11-26T04:03:23.520Z,100745.80
2017-11-26T04:05:52.217Z,100756.36
2017-11-26T04:08:20.885Z,100747.92
2017-11-26T04:10:49.579Z,100745.77
2017-11-26T04:13:23.519Z,100751.69
2017-11-26T04:15:51.926Z,100752.58
2017-11-26T04:18:20.372Z,100744.92
2017-11-26T04:20:49.022Z,100749.14
2017-11-26T04:23:24.112Z,100745.78
2017-11-26T04:25:52.498Z,100753.41
2017-11-26T04:28:21.217Z,100765.25
2017-11-26T04:30:49.904Z,100762.67
2017-11-26T04:33:18.631Z,100762.27
2017-11-26T04:35:47.297Z,100746.21
2017-11-26T04:38:15.993Z,100745.87
2017-11-26T04:40:44.723Z,100736.94
2017-11-26T04:43:13.418Z,100739.50
2017-11-26T04:45:42.070Z,100754.70
2017-11-26T04:48:10.789Z,100748.50
2017-11-26T04:50:39.463Z,100747.27
2017-11-26T04:53:08.157Z,100745.61
2017-11-26T04:55:36.812Z,100740.88
2017-11-26T04:58:05.489Z,100746.32
2017-11-26T05:00:33.893Z,100733.22
2017-11-26T05:03:02.253Z,100743.03
2017-11-26T05:05:30.720Z,100745.92
2017-11-26T05:07:59.377Z,100740.84
2017-11-26T05:10:28.014Z,100739.64
2017-11-26T05:12:56.719Z,100743.88
2017-11-26T05:15:25.355Z,100745.98
2017-11-26T05:17:54.046Z,100751.47
2017-11-26T05:20:22.701Z,100758.25
2017-11-26T05:22:52.879Z,100759.50
2017-11-26T05:25:21.659Z,100767.12
2017-11-26T05:27:50.361Z,100768.08
2017-11-26T05:30:19.087Z,100766.77
2017-11-26T05:33:00.285Z,100770.11
2017-11-26T05:35:37.583Z,100760.38
2017-11-26T05:38:11.284Z,100767.52
2017-11-26T05:40:44.512Z,100756.87
2017-11-26T05:43:21.235Z,100764.59
2017-11-26T05:45:51.840Z,100757.73
2017-11-26T05:48:22.959Z,100760.69
2017-11-26T05:50:53.237Z,100757.75
2017-11-26T05:53:26.298Z,100752.23
2017-11-26T05:55:55.798Z,100749.63
2017-11-26T05:58:25.249Z,100751.31
2017-11-26T06:00:56.292Z,100747.50
2017-11-26T06:03:26.555Z,100746.28
2017-11-26T06:05:57.365Z,100743.20
2017-11-26T06:08:26.072Z,100750.39
2017-11-26T06:10:56.014Z,100750.81
2017-11-26T06:13:24.776Z,100743.61
2017-11-26T06:15:54.361Z,100746.91
2017-11-26T06:18:25.972Z,100751.14
2017-11-26T06:20:56.036Z,100749.86
2017-11-26T06:23:26.233Z,100754.45
2017-11-26T06:25:55.660Z,100754.92
2017-11-26T06:28:25.168Z,100762.81
2017-11-26T06:30:56.572Z,100755.19
2017-11-26T06:33:27.232Z,100766.17
2017-11-26T06:35:58.188Z,100764.05
2017-11-26T06:38:27.147Z,100772.86
2017-11-26T06:40:56.390Z,100777.48
2017-11-26T06:43:29.036Z,100777.13
2017-11-26T06:45:57.846Z,100777.55
2017-11-26T06:48:26.689Z,100771.61
2017-11-26T06:50:55.410Z,100768.97
2017-11-26T06:53:26.401Z,100774.44
2017-11-26T06:55:55.134Z,100783.31
2017-11-26T06:58:24.441Z,100780.77
2017-11-26T07:04:02.340Z,100787.13
2017-11-26T07:06:31.941Z,100792.17
2017-11-26T07:09:00.649Z,100798.86
2017-11-26T07:11:29.372Z,100801.86
2017-11-26T07:13:57.928Z,100800.94
2017-11-26T07:16:26.613Z,100804.83
2017-11-26T07:18:58.972Z,100820.05
2017-11-26T07:21:31.138Z,100829.31
2017-11-26T07:24:03.722Z,100829.34
2017-11-26T07:26:35.922Z,100831.02
2017-11-26T07:29:09.060Z,100832.21
2017-11-26T07:31:41.309Z,100825.08
2017-11-26T07:34:14.211Z,100819.11
2017-11-26T07:36:46.703Z,100818.20
2017-11-26T07:39:25.264Z,100824.52
2017-11-26T07:41:57.642Z,100821.09
2017-11-26T07:44:30.186Z,100832.45
2017-11-26T07:47:02.341Z,100843.09
2017-11-26T07:49:34.995Z,100826.95
2017-11-26T07:52:07.579Z,100832.05
2017-11-26T07:54:40.202Z,100831.11
2017-11-26T07:57:12.686Z,100826.48
2017-11-26T07:59:41.628Z,100826.92
2017-11-26T08:02:13.595Z,100826.45
2017-11-26T08:04:46.692Z,100837.79
2017-11-26T08:07:18.400Z,100838.67
2017-11-26T08:09:51.448Z,100831.48
2017-11-26T08:12:23.235Z,100844.16
2017-11-26T08:14:55.407Z,100831.84
2017-11-26T08:17:27.552Z,100835.19
2017-11-26T08:19:59.908Z,100836.46
2017-11-26T08:22:31.900Z,100831.78
2017-11-26T08:25:04.843Z,100830.47
2017-11-26T08:27:36.452Z,100825.36
2017-11-26T08:30:08.312Z,100835.88
2017-11-26T08:32:40.809Z,100829.53
2017-11-26T08:35:14.286Z,100829.08
2017-11-26T08:37:47.005Z,100838.02
2017-11-26T08:40:19.335Z,100829.49
2017-11-26T08:42:52.228Z,100831.61
2017-11-26T08:45:24.563Z,100835.83
2017-11-26T08:47:56.927Z,100845.51
2017-11-26T08:50:29.272Z,100843.39
2017-11-26T08:53:01.843Z,100843.34
2017-11-26T08:55:33.937Z,100850.06
2017-11-26T08:58:05.292Z,100859.34
2017-11-26T09:00:37.401Z,100858.83
2017-11-26T09:03:09.323Z,100860.48
2017-11-26T09:05:41.575Z,100844.38
2017-11-26T09:08:13.702Z,100850.66
2017-11-26T09:10:46.108Z,100858.64
2017-11-26T09:13:19.453Z,100855.20
2017-11-26T09:15:50.987Z,100850.48
2017-11-26T09:18:22.959Z,100845.41
2017-11-26T09:20:55.697Z,100853.80
2017-11-26T09:23:29.781Z,100848.25
2017-11-26T09:26:02.310Z,100859.67
2017-11-26T09:28:35.007Z,100867.24
2017-11-26T09:31:08.674Z,100860.04
2017-11-26T09:33:37.496Z,100863.81
2017-11-26T09:36:06.189Z,100861.23
2017-11-26T09:38:34.939Z,100865.88
2017-11-26T09:41:03.318Z,100868.00
2017-11-26T09:43:32.000Z,100872.16
2017-11-26T09:46:00.721Z,100864.53
2017-11-26T09:48:29.427Z,100867.05
2017-11-26T09:50:58.089Z,100864.91
2017-11-26T09:53:26.754Z,100866.10
2017-11-26T09:55:55.435Z,100869.47
2017-11-26T09:58:24.085Z,100867.78
2017-11-26T10:00:52.883Z,100866.44
2017-11-26T10:03:22.689Z,100854.14
2017-11-26T10:05:51.368Z,100847.77
2017-11-26T10:08:19.952Z,100851.58
2017-11-26T10:10:48.475Z,100860.03
2017-11-26T10:13:17.045Z,100857.83
2017-11-26T10:15:45.559Z,100855.73
2017-11-26T10:18:14.228Z,100856.89
2017-11-26T10:20:42.932Z,100859.00
2017-11-26T10:23:11.624Z,100864.94
2017-11-26T10:25:40.304Z,100857.30
2017-11-26T10:28:08.985Z,100853.06
2017-11-26T10:30:37.629Z,100856.41
2017-11-26T10:33:06.303Z,100858.89
2017-11-26T10:35:35.028Z,100865.25
2017-11-26T10:38:03.721Z,100861.38
2017-11-26T10:40:32.404Z,100865.58
2017-11-26T10:43:01.101Z,100862.14
2017-11-26T10:45:29.467Z,100854.53
2017-11-26T10:47:58.207Z,100859.59
2017-11-26T10:50:26.551Z,100862.10
2017-11-26T10:52:55.009Z,100861.21
2017-11-26T10:55:23.374Z,100851.04
2017-11-26T10:57:51.776Z,100854.80
2017-11-26T11:00:20.242Z,100842.94
2017-11-26T11:02:49.013Z,100844.13
2017-11-26T11:05:17.388Z,100864.45
2017-11-26T11:07:45.905Z,100840.73
2017-11-26T11:10:14.632Z,100847.08
2017-11-26T11:12:43.027Z,100839.41
2017-11-26T11:15:11.424Z,100845.30
2017-11-26T11:17:40.137Z,100854.58
2017-11-26T11:20:08.543Z,100844.38
2017-11-26T11:22:37.328Z,100840.94
2017-11-26T11:25:06.039Z,100849.81
2017-11-26T11:27:34.679Z,100852.78
2017-11-26T11:30:03.395Z,100848.53
2017-11-26T11:32:32.036Z,100851.45
2017-11-26T11:35:00.726Z,100853.98
2017-11-26T11:37:29.387Z,100857.76
2017-11-26T11:39:58.036Z,100861.10
2017-11-26T11:42:26.732Z,100865.35
2017-11-26T11:44:55.384Z,100862.75
2017-11-26T11:47:24.099Z,100866.53
2017-11-26T11:49:52.785Z,100862.70
2017-11-26T11:52:21.579Z,100860.11
2017-11-26T11:54:50.133Z,100856.33
2017-11-26T11:57:18.884Z,100860.05
2017-11-26T11:59:47.548Z,100856.67
2017-11-26T12:02:16.122Z,100867.20
2017-11-26T12:04:44.853Z,100857.86
2017-11-26T12:07:13.555Z,100864.63
2017-11-26T12:09:42.315Z,100861.19
2017-11-26T12:12:11.023Z,100867.55
2017-11-26T12:14:39.755Z,100868.83
2017-11-26T12:17:08.522Z,100867.96
2017-11-26T12:19:37.229Z,100864.95
2017-11-26T12:22:05.605Z,100860.70
2017-11-26T12:24:34.089Z,100864.46
2017-11-26T12:27:02.326Z,100866.57
2017-11-26T12:29:30.701Z,100861.88
2017-11-26T12:31:59.309Z,100861.84
2017-11-26T12:34:28.002Z,100860.53
2017-11-26T12:36:56.585Z,100860.09
2017-11-26T12:39:24.916Z,100860.09
2017-11-26T12:41:53.312Z,100868.12
2017-11-26T12:44:22.018Z,100873.17
2017-11-26T12:46:50.738Z,100873.63
2017-11-26T12:49:19.454Z,100860.87
2017-11-26T12:51:47.828Z,100867.62
2017-11-26T12:54:16.558Z,100875.20
2017-11-26T12:56:44.916Z,100866.72
2017-11-26T12:59:13.577Z,100867.50
2017-11-26T13:01:42.302Z,100867.52
2017-11-26T13:04:10.707Z,100870.88
2017-11-26T13:06:39.420Z,100878.08
2017-11-26T13:09:07.637Z,100875.95
2017-11-26T13:11:36.170Z,100887.84
2017-11-26T13:14:04.612Z,100885.67
2017-11-26T13:16:33.341Z,100886.07
2017-11-26T13:19:01.704Z,100888.20
2017-11-26T13:21:30.141Z,100889.87
2017-11-26T13:23:58.619Z,100890.31
2017-11-26T13:26:26.988Z,100894.09
2017-11-26T13:28:55.431Z,100891.90
2017-11-26T13:31:23.825Z,100897.89
2017-11-26T13:33:52.237Z,100900.85
2017-11-26T13:36:20.400Z,100901.65
2017-11-26T13:38:48.765Z,100903.70
2017-11-26T13:41:17.160Z,100903.69
2017-11-26T13:43:45.582Z,100901.58
2017-11-26T13:46:14.848Z,100899.43
2017-11-26T13:48:43.211Z,100907.07
2017-11-26T13:51:11.662Z,100906.20
2017-11-26T13:53:40.051Z,100904.09
2017-11-26T13:56:10.133Z,100911.23
2017-11-26T13:58:38.599Z,100904.03
2017-11-26T14:01:07.073Z,100896.77
2017-11-26T14:03:35.516Z,100895.45
2017-11-26T14:06:03.939Z,100899.27
2017-11-26T14:08:32.448Z,100908.58
2017-11-26T14:11:00.808Z,100903.89
2017-11-26T14:13:29.291Z,100921.27
2017-11-26T14:15:57.673Z,100922.56
2017-11-26T14:18:26.087Z,100919.14
2017-11-26T14:20:54.526Z,100917.84
2017-11-26T14:23:23.976Z,100922.54
2017-11-26T14:25:52.373Z,100929.30
2017-11-26T14:28:20.726Z,100924.67
2017-11-26T14:30:49.412Z,100932.29
2017-11-26T14:33:18.772Z,100928.89
2017-11-26T14:35:47.256Z,100928.08
2017-11-26T14:38:15.415Z,100935.27
2017-11-26T14:40:43.857Z,100935.69
2017-11-26T14:43:12.281Z,100935.69
2017-11-26T14:45:41.403Z,100937.80
2017-11-26T14:48:09.819Z,100937.33
2017-11-26T14:50:38.236Z,100937.33
2017-11-26T14:53:06.650Z,100938.56
2017-11-26T14:55:35.013Z,100937.72
2017-11-26T14:58:03.428Z,100934.78
2017-11-26T15:00:31.876Z,100942.81
2017-11-26T15:03:00.288Z,100933.05
2017-11-26T15:05:29.572Z,100942.40
2017-11-26T15:07:57.941Z,100950.45
2017-11-26T15:10:26.382Z,100949.58
2017-11-26T15:12:54.724Z,100944.97
2017-11-26T15:15:23.303Z,100946.23
2017-11-26T15:17:51.713Z,100947.08
2017-11-26T15:20:20.157Z,100950.89
2017-11-26T15:22:48.644Z,100951.73
2017-11-26T15:25:17.035Z,100949.64
2017-11-26T15:27:45.516Z,100948.34
2017-11-26T15:30:13.934Z,100950.91
2017-11-26T15:32:42.299Z,100946.26
2017-11-26T15:35:11.008Z,100949.22
2017-11-26T15:37:39.792Z,100953.90
2017-11-26T15:40:08.168Z,100950.08
2017-11-26T15:42:36.374Z,100950.94
2017-11-26T15:45:04.955Z,100950.97
2017-11-26T15:47:33.187Z,100950.56
2017-11-26T15:50:01.802Z,100952.25
2017-11-26T15:52:30.146Z,100949.75
2017-11-26T15:54:58.552Z,100958.20
2017-11-26T15:57:27.233Z,100959.10
2017-11-26T15:59:55.695Z,100958.72
2017-11-26T16:02:24.144Z,100965.06
2017-11-26T16:04:52.849Z,100964.69
2017-11-26T16:07:21.108Z,100971.88
2017-11-26T16:09:49.829Z,100966.78
2017-11-26T16:12:18.246Z,100973.55
2017-11-26T16:14:46.916Z,100971.91
2017-11-26T16:17:15.738Z,100974.40
2017-11-26T16:19:44.104Z,100964.25
2017-11-26T16:22:12.532Z,100970.16
2017-11-26T16:24:40.893Z,100982.02
2017-11-26T16:27:09.285Z,100981.19
2017-11-26T16:29:38.093Z,100984.15
2017-11-26T16:32:06.456Z,100987.53
2017-11-26T16:34:34.709Z,100990.89
2017-11-26T16:37:03.074Z,100996.41
2017-11-26T16:39:31.736Z,100984.10
2017-11-26T16:42:00.227Z,100997.69
2017-11-26T16:44:28.556Z,100993.86
2017-11-26T16:46:56.968Z,101004.05
2017-11-26T16:49:25.544Z,101003.19
2017-11-26T16:51:54.254Z,101012.94
2017-11-26T16:54:22.567Z,101006.59
2017-11-26T16:56:51.208Z,101008.70
2017-11-26T16:59:19.669Z,101016.74
2017-11-26T17:01:48.430Z,101016.30
2017-11-26T17:04:16.683Z,101019.27
2017-11-26T17:06:45.266Z,101019.70
2017-11-26T17:09:13.842Z,101017.54
2017-11-26T17:11:42.057Z,101018.83
2017-11-26T17:14:10.282Z,101014.12
2017-11-26T17:16:39.028Z,101015.38
2017-11-26T17:19:07.389Z,101016.20
2017-11-26T17:21:36.117Z,101009.84
2017-11-26T17:24:04.485Z,101018.30
2017-11-26T17:26:32.847Z,101024.72
2017-11-26T17:29:01.263Z,101020.08
2017-11-26T17:31:29.951Z,101018.34
2017-11-26T17:33:58.190Z,101028.07
2017-11-26T17:36:26.914Z,101026.81
2017-11-26T17:38:55.301Z,101025.14
2017-11-26T17:41:23.666Z,101031.05
2017-11-26T17:43:52.070Z,101025.10
2017-11-26T17:46:20.466Z,101033.14
2017-11-26T17:48:49.153Z,101028.07
2017-11-26T17:51:17.556Z,101028.02
2017-11-26T17:53:46.469Z,101027.59
2017-11-26T17:56:14.937Z,101035.25
2017-11-26T17:58:43.593Z,101032.25
2017-11-26T18:01:12.026Z,101041.59
2017-11-26T18:03:40.809Z,101036.49
2017-11-26T18:06:09.454Z,101037.34
2017-11-26T18:08:38.057Z,101034.80
2017-11-26T18:11:06.804Z,101036.08
2017-11-26T18:13:35.462Z,101038.62
2017-11-26T18:16:04.268Z,101044.13
2017-11-26T18:18:32.973Z,101045.84
2017-11-26T18:21:01.618Z,101047.53
2017-11-26T18:23:30.342Z,101049.25
2017-11-26T18:25:59.017Z,101041.18
2017-11-26T18:28:27.681Z,101042.86
2017-11-26T18:30:56.368Z,101037.34
2017-11-26T18:33:25.063Z,101041.58
2017-11-26T18:35:53.715Z,101037.78
2017-11-26T18:38:22.398Z,101043.72
2017-11-26T18:40:51.034Z,101042.02
2017-11-26T18:43:22.938Z,101044.98
2017-11-26T18:45:51.585Z,101040.30
2017-11-26T18:48:20.345Z,101049.24
2017-11-26T18:50:48.994Z,101046.27
2017-11-26T18:53:17.715Z,101050.52
2017-11-26T18:55:46.383Z,101051.35
2017-11-26T18:58:15.050Z,101048.38
2017-11-26T19:00:43.741Z,101052.22
2017-11-26T19:03:12.392Z,101056.47
2017-11-26T19:05:41.095Z,101059.83
2017-11-26T19:08:09.757Z,101065.38
2017-11-26T19:10:38.802Z,101069.60
2017-11-26T19:13:07.500Z,101073.42
2017-11-26T19:15:36.176Z,101078.94
2017-11-26T19:18:04.922Z,101084.91
2017-11-26T19:20:33.669Z,101083.22
2017-11-26T19:23:02.382Z,101089.12
2017-11-26T19:25:31.061Z,101096.83
2017-11-26T19:27:59.868Z,101087.89
2017-11-26T19:30:28.522Z,101090.42
2017-11-26T19:32:57.283Z,101080.25
2017-11-26T19:35:25.990Z,101084.08
2017-11-26T19:37:54.651Z,101092.97
2017-11-26T19:40:23.391Z,101094.27
2017-11-26T19:42:52.114Z,101094.25
2017-11-26T19:45:20.845Z,101092.95
2017-11-26T19:47:49.377Z,101097.20
2017-11-26T19:50:18.157Z,101100.20
2017-11-26T19:52:46.855Z,101108.25
2017-11-26T19:55:15.466Z,101099.32
2017-11-26T19:57:43.998Z,101109.51
2017-11-26T20:00:12.369Z,101112.51
2017-11-26T20:02:41.043Z,101110.41
2017-11-26T20:05:09.724Z,101109.18
2017-11-26T20:07:38.364Z,101108.31
2017-11-26T20:10:07.049Z,101109.58
2017-11-26T20:12:35.829Z,101109.18
2017-11-26T20:15:04.362Z,101111.30
2017-11-26T20:17:33.116Z,101107.91
2017-11-26T20:20:01.861Z,101116.86
2017-11-26T20:22:47.340Z,101116.41
2017-11-26T20:25:22.861Z,101117.66
2017-11-26T20:28:07.294Z,101119.81
2017-11-26T20:30:36.893Z,101115.13
2017-11-26T20:33:19.347Z,101129.19
2017-11-26T20:36:04.499Z,101121.57
2017-11-26T20:38:44.530Z,101118.63
2017-11-26T20:41:24.194Z,101123.30
2017-11-26T20:44:08.960Z,101116.48
2017-11-26T20:46:50.148Z,101122.88
2017-11-26T20:49:25.028Z,101121.17
2017-11-26T20:54:52.616Z,101121.61
2017-11-26T20:57:32.669Z,101120.33
2017-11-26T21:00:16.116Z,101120.75
2017-11-26T21:02:54.909Z,101126.28
2017-11-26T21:05:37.335Z,101131.81
2017-11-26T21:08:09.047Z,101128.41
2017-11-26T21:10:49.021Z,101126.66
2017-11-26T21:13:24.443Z,101121.61
2017-11-26T21:16:00.901Z,101128.01
2017-11-26T21:18:42.128Z,101125.02
2017-11-26T21:21:13.582Z,101122.08
2017-11-26T21:23:42.291Z,101120.86
2017-11-26T21:26:31.434Z,101115.30
2017-11-26T21:29:07.653Z,101117.05
2017-11-26T21:31:37.486Z,101128.56
2017-11-26T21:34:16.535Z,101121.36
2017-11-26T21:37:00.521Z,101127.33
2017-11-26T21:39:29.717Z,101122.25
2017-11-26T21:42:07.647Z,101119.25
2017-11-26T21:44:46.190Z,101119.30
2017-11-26T21:47:24.432Z,101119.74
2017-11-26T21:49:55.291Z,101107.47
2017-11-26T21:52:25.894Z,101112.51
2017-11-26T21:54:57.619Z,101108.34
2017-11-26T21:57:27.938Z,101113.02
2017-11-26T22:00:00.103Z,101117.69
2017-11-26T22:02:29.956Z,101122.80
2017-11-26T22:04:59.580Z,101125.86
2017-11-26T22:07:28.239Z,101127.17
2017-11-26T22:09:56.881Z,101139.88
2017-11-26T22:12:25.569Z,101143.28
2017-11-26T22:14:54.201Z,101144.14
2017-11-26T22:17:22.864Z,101140.84
2017-11-26T22:19:51.568Z,101144.22
2017-11-26T22:22:20.265Z,101142.13
2017-11-26T22:24:48.931Z,101139.21
2017-11-26T22:27:17.573Z,101127.73
2017-11-26T22:29:46.288Z,101133.67
2017-11-26T22:32:15.085Z,101148.99
2017-11-26T22:34:43.792Z,101148.16
2017-11-26T22:37:12.494Z,101149.37
2017-11-26T22:39:41.145Z,101145.61
2017-11-26T22:42:09.814Z,101146.47
2017-11-26T22:44:38.536Z,101147.73
2017-11-26T22:47:07.177Z,101153.70
2017-11-26T22:49:37.933Z,101150.77
2017-11-26T22:52:06.604Z,101150.38
2017-11-26T22:54:35.229Z,101150.83
2017-11-26T22:57:04.005Z,101149.04
2017-11-26T22:59:32.594Z,101143.97
2017-11-26T23:02:01.526Z,101142.70
2017-11-26T23:04:29.686Z,101141.02
2017-11-26T23:06:58.332Z,101141.42
2017-11-26T23:09:27.018Z,101144.45
2017-11-26T23:11:55.528Z,101141.06
2017-11-26T23:14:24.179Z,101136.84
2017-11-26T23:16:52.969Z,101136.04
2017-11-26T23:19:21.677Z,101139.89
2017-11-26T23:21:50.312Z,101141.09
2017-11-26T23:24:19.493Z,101141.92
2017-11-26T23:26:48.153Z,101147.94
2017-11-26T23:29:16.810Z,101145.00
2017-11-26T23:31:45.566Z,101138.62
2017-11-26T23:34:14.208Z,101139.03
2017-11-26T23:36:42.928Z,101146.25
2017-11-26T23:39:11.599Z,101145.40
2017-11-26T23:41:40.261Z,101145.45
2017-11-26T23:44:08.949Z,101154.82
2017-11-26T23:46:37.632Z,101149.33
2017-11-26T23:49:06.286Z,101151.89
2017-11-26T23:51:34.951Z,101145.51
2017-11-26T23:54:03.538Z,101148.14
2017-11-26T23:56:32.040Z,101156.66
2017-11-26T23:59:00.738Z,101150.30
